Time;durP1;ratioP1;P1;durP2;ratioP2;P2;SDS_P1;SDS_P2;PMS_P1;PMS_P2;Temp;Humidity;BMP_temperature;BMP_pressure;BME280_temperature;BME280_humidity;BME280_pressure;Samples;Min_cycle;Max_cycle;Signal;HPM_P1;HPM_P2
2023/11/12 06:00:49;;;;;;;1999.90;999.90;;;;;;;;;;6179986;23;20032;-71
2023/11/12 06:03:15;;;;;;;1999.90;999.90;;;;;;;;;;6182621;23;20008;-74
2023/11/12 06:05:41;;;;;;;1999.90;999.90;;;;;;;;;;6182953;23;20047;-70
2023/11/12 06:08:07;;;;;;;1999.90;999.90;;;;;;;;;;6182440;23;20001;-64
2023/11/12 06:10:33;;;;;;;1999.90;999.90;;;;;;;;;;6183788;23;20017;-65
2023/11/12 06:12:59;;;;;;;1999.90;999.90;;;;;;;;;;6184136;23;20008;-66
2023/11/12 06:15:27;;;;;;;1999.90;999.90;;;;;;;;;;6184566;23;20012;-62
2023/11/12 06:17:53;;;;;;;1999.90;999.90;;;;;;;;;;6184643;23;20048;-75
2023/11/12 06:20:20;;;;;;;1999.90;999.90;;;;;;;;;;6184944;23;20014;-70
2023/11/12 06:22:46;;;;;;;1999.90;999.90;;;;;;;;;;6184352;23;20012;-63
2023/11/12 06:25:12;;;;;;;1999.90;999.90;;;;;;;;;;6184167;23;20087;-63
2023/11/12 06:27:39;;;;;;;1999.90;999.90;;;;;;;;;;6184575;23;20015;-64
2023/11/12 06:30:05;;;;;;;1999.90;999.90;;;;;;;;;;6185285;23;20028;-64
2023/11/12 06:32:31;;;;;;;1999.90;999.90;;;;;;;;;;6183779;23;20001;-65
2023/11/12 06:34:57;;;;;;;1999.90;999.90;;;;;;;;;;6184287;23;20057;-67
2023/11/12 06:37:23;;;;;;;1999.90;999.90;;;;;;;;;;6184276;23;20001;-63
2023/11/12 06:39:49;;;;;;;1999.90;999.90;;;;;;;;;;6183728;23;20005;-63
2023/11/12 06:42:15;;;;;;;1999.90;999.90;;;;;;;;;;6183779;23;20009;-65
2023/11/12 06:44:42;;;;;;;1999.90;999.90;;;;;;;;;;6184129;23;20001;-69
2023/11/12 06:47:08;;;;;;;1999.90;999.90;;;;;;;;;;6183731;23;20005;-64
2023/11/12 06:49:35;;;;;;;1999.90;999.90;;;;;;;;;;6184241;23;20092;-66
2023/11/12 06:52:01;;;;;;;1999.90;999.90;;;;;;;;;;6183907;23;19997;-66
2023/11/12 06:54:27;;;;;;;1999.90;999.90;;;;;;;;;;6183971;23;20060;-67
2023/11/12 06:56:57;;;;;;;1999.90;999.90;;;;;;;;;;6183390;23;20025;-65
2023/11/12 06:59:23;;;;;;;1999.90;999.90;;;;;;;;;;6201253;23;20078;-63
2023/11/12 07:01:49;;;;;;;1999.90;999.90;;;;;;;;;;6187080;23;20133;-63
2023/11/12 07:04:15;;;;;;;1999.90;999.90;;;;;;;;;;6213949;23;20016;-69
2023/11/12 07:06:42;;;;;;;1999.90;999.90;;;;;;;;;;6213803;23;20005;-71
2023/11/12 07:09:08;;;;;;;1999.90;999.90;;;;;;;;;;6213497;23;20013;-65
2023/11/12 07:11:35;;;;;;;1999.90;999.90;;;;;;;;;;6213480;23;20031;-68
2023/11/12 07:14:01;;;;;;;1999.90;999.90;;;;;;;;;;6181082;23;20321;-73
2023/11/12 07:16:27;;;;;;;1999.90;999.90;;;;;;;;;;6206392;23;20083;-66
2023/11/12 07:18:55;;;;;;;1999.90;999.90;;;;;;;;;;6214089;23;20329;-63
2023/11/12 07:21:28;;;;;;;1999.90;999.90;;;;;;;;;;6213725;23;20015;-69
2023/11/12 07:23:54;;;;;;;1999.90;999.90;;;;;;;;;;6213899;23;20012;-72
2023/11/12 07:26:20;;;;;;;1999.90;999.90;;;;;;;;;;6213707;23;20027;-66
2023/11/12 07:28:46;;;;;;;1999.90;999.90;;;;;;;;;;6213908;23;20047;-69
2023/11/12 07:31:13;;;;;;;1999.90;999.90;;;;;;;;;;6213983;23;20008;-68
2023/11/12 07:33:39;;;;;;;1999.90;999.90;;;;;;;;;;6213574;23;20000;-71
2023/11/12 07:36:06;;;;;;;1999.90;999.90;;;;;;;;;;6213639;23;20001;-74
2023/11/12 07:38:32;;;;;;;1999.90;999.90;;;;;;;;;;6213490;23;20027;-63
2023/11/12 07:40:58;;;;;;;1999.90;999.90;;;;;;;;;;6213491;23;20012;-64
2023/11/12 07:43:25;;;;;;;1999.90;999.90;;;;;;;;;;6213753;23;20011;-62
2023/11/12 07:45:51;;;;;;;1999.90;999.90;;;;;;;;;;6213552;23;20021;-64
2023/11/12 07:48:17;;;;;;;1999.90;999.90;;;;;;;;;;6186340;23;20367;-63
2023/11/12 07:50:43;;;;;;;1999.90;999.90;;;;;;;;;;6186240;23;20488;-63
2023/11/12 07:53:09;;;;;;;1999.90;999.90;;;;;;;;;;6213803;23;20494;-65
2023/11/12 07:55:35;;;;;;;1999.90;999.90;;;;;;;;;;6213376;23;20055;-62
2023/11/12 07:58:01;;;;;;;1999.90;999.90;;;;;;;;;;6212965;23;20080;-66
2023/11/12 08:00:27;;;;;;;1999.90;999.90;;;;;;;;;;6213494;23;20021;-64
2023/11/12 08:02:53;;;;;;;1999.90;999.90;;;;;;;;;;6213689;23;20012;-75
2023/11/12 08:05:20;;;;;;;1999.90;999.90;;;;;;;;;;6213151;23;20000;-66
2023/11/12 08:07:46;;;;;;;1999.90;999.90;;;;;;;;;;6186002;23;20385;-63
2023/11/12 08:10:12;;;;;;;1999.90;999.90;;;;;;;;;;6212970;23;20015;-64
2023/11/12 08:12:39;;;;;;;1999.90;999.90;;;;;;;;;;6212760;23;20436;-64
2023/11/12 08:15:10;;;;;;;1999.90;999.90;;;;;;;;;;6213821;23;20016;-64
2023/11/12 08:17:37;;;;;;;1999.90;999.90;;;;;;;;;;6213196;23;20008;-66
2023/11/12 08:20:04;;;;;;;1999.90;999.90;;;;;;;;;;6213313;23;20192;-64
2023/11/12 08:22:30;;;;;;;1999.90;999.90;;;;;;;;;;6213052;23;20003;-65
2023/11/12 08:24:56;;;;;;;1999.90;999.90;;;;;;;;;;6213707;23;20005;-65
2023/11/12 08:27:23;;;;;;;1999.90;999.90;;;;;;;;;;6213506;23;19993;-64
2023/11/12 08:29:49;;;;;;;1999.90;999.90;;;;;;;;;;6213416;23;20457;-63
2023/11/12 08:32:15;;;;;;;1999.90;999.90;;;;;;;;;;6212645;23;20055;-65
2023/11/12 08:34:42;;;;;;;1999.90;999.90;;;;;;;;;;6212517;23;20005;-64
2023/11/12 08:37:08;;;;;;;1999.90;999.90;;;;;;;;;;6212066;23;20024;-67
2023/11/12 08:39:34;;;;;;;1999.90;999.90;;;;;;;;;;6213700;23;20126;-63
2023/11/12 08:42:00;;;;;;;1999.90;999.90;;;;;;;;;;6212686;23;20008;-66
2023/11/12 08:44:26;;;;;;;1999.90;999.90;;;;;;;;;;6212744;23;20119;-70
2023/11/12 08:46:52;;;;;;;1999.90;999.90;;;;;;;;;;6212853;23;20000;-71
2023/11/12 08:49:18;;;;;;;1999.90;999.90;;;;;;;;;;6212618;23;20016;-69
2023/11/12 08:51:44;;;;;;;1999.90;999.90;;;;;;;;;;6213240;23;20325;-66
2023/11/12 08:54:12;;;;;;;1999.90;999.90;;;;;;;;;;6212699;23;20004;-67
2023/11/12 08:56:38;;;;;;;1999.90;999.90;;;;;;;;;;6212953;23;20015;-64
2023/11/12 08:59:04;;;;;;;1999.90;999.90;;;;;;;;;;6212236;23;20009;-63
2023/11/12 09:01:36;;;;;;;1999.90;999.90;;;;;;;;;;6213046;23;20032;-68
2023/11/12 09:04:02;;;;;;;1999.90;999.90;;;;;;;;;;6200884;23;20401;-67
2023/11/12 09:06:28;;;;;;;1999.90;999.90;;;;;;;;;;6212792;23;20012;-64
2023/11/12 09:08:55;;;;;;;1999.90;999.90;;;;;;;;;;6212989;23;20400;-67
2023/11/12 09:11:21;;;;;;;1999.90;999.90;;;;;;;;;;6212591;23;20013;-65
2023/11/12 09:13:48;;;;;;;1999.90;999.90;;;;;;;;;;6185907;23;20008;-65
2023/11/12 09:16:14;;;;;;;1999.90;999.90;;;;;;;;;;6212092;23;20009;-69
2023/11/12 09:18:40;;;;;;;1999.90;999.90;;;;;;;;;;6211631;23;20032;-67
2023/11/12 09:21:07;;;;;;;1999.90;999.90;;;;;;;;;;6212623;23;19997;-64
2023/11/12 09:23:33;;;;;;;1999.90;999.90;;;;;;;;;;6212601;23;20008;-64
2023/11/12 09:25:59;;;;;;;1999.90;999.90;;;;;;;;;;6212779;23;19997;-69
2023/11/12 09:28:25;;;;;;;1999.90;999.90;;;;;;;;;;6185338;23;20004;-64
2023/11/12 09:30:51;;;;;;;1999.90;999.90;;;;;;;;;;6212733;23;20433;-67
2023/11/12 09:33:17;;;;;;;1999.90;999.90;;;;;;;;;;6212447;23;19997;-67
2023/11/12 09:35:44;;;;;;;1999.90;999.90;;;;;;;;;;6212556;23;20326;-74
2023/11/12 09:38:10;;;;;;;1999.90;999.90;;;;;;;;;;6213100;23;20000;-75
2023/11/12 09:40:36;;;;;;;1999.90;999.90;;;;;;;;;;6211601;23;20008;-74
2023/11/12 09:43:03;;;;;;;1999.90;999.90;;;;;;;;;;6212232;23;20080;-66
2023/11/12 09:45:30;;;;;;;1999.90;999.90;;;;;;;;;;6185135;23;20013;-67
2023/11/12 09:48:04;;;;;;;1999.90;999.90;;;;;;;;;;6211924;23;20001;-69
2023/11/12 09:50:31;;;;;;;1999.90;999.90;;;;;;;;;;6185512;23;20260;-65
2023/11/12 09:53:03;;;;;;;1999.90;999.90;;;;;;;;;;6212425;23;20084;-68
2023/11/12 09:55:29;;;;;;;1999.90;999.90;;;;;;;;;;6184446;23;20016;-69
2023/11/12 09:57:56;;;;;;;1999.90;999.90;;;;;;;;;;6211228;23;20058;-68
2023/11/12 10:00:23;;;;;;;1999.90;999.90;;;;;;;;;;6211729;23;20120;-69
2023/11/12 10:02:49;;;;;;;1999.90;999.90;;;;;;;;;;6211839;23;20755;-65
2023/11/12 10:05:15;;;;;;;1999.90;999.90;;;;;;;;;;6211935;23;20008;-65
2023/11/12 10:07:41;;;;;;;1999.90;999.90;;;;;;;;;;6211727;23;20036;-65
2023/11/12 10:10:27;;;;;;;1999.90;999.90;;;;;;;;;;6212104;23;20087;-64
2023/11/12 10:12:56;;;;;;;1999.90;999.90;;;;;;;;;;6212066;23;20023;-66
2023/11/12 10:15:23;;;;;;;1999.90;999.90;;;;;;;;;;6212125;23;20072;-68
2023/11/12 10:17:51;;;;;;;1999.90;999.90;;;;;;;;;;6211470;23;20063;-66
2023/11/12 10:20:19;;;;;;;1999.90;999.90;;;;;;;;;;6211394;23;20437;-71
2023/11/12 10:22:46;;;;;;;1999.90;999.90;;;;;;;;;;6212213;23;20083;-66
2023/11/12 10:25:12;;;;;;;1999.90;999.90;;;;;;;;;;6211607;23;20004;-69
2023/11/12 10:27:52;;;;;;;1999.90;999.90;;;;;;;;;;6212442;23;20669;-64
2023/11/12 10:30:20;;;;;;;1999.90;999.90;;;;;;;;;;6212207;23;20028;-63
2023/11/12 10:32:46;;;;;;;1999.90;999.90;;;;;;;;;;6212177;23;20004;-66
2023/11/12 10:35:12;;;;;;;1999.90;999.90;;;;;;;;;;6212273;23;20491;-68
2023/11/12 10:37:57;;;;;;;1999.90;999.90;;;;;;;;;;6212066;23;20417;-64
2023/11/12 10:40:24;;;;;;;1999.90;999.90;;;;;;;;;;6212469;23;20007;-70
2023/11/12 10:42:58;;;;;;;1999.90;999.90;;;;;;;;;;6211489;23;20476;-66
2023/11/12 10:45:24;;;;;;;1999.90;999.90;;;;;;;;;;6211507;23;20005;-64
2023/11/12 10:47:52;;;;;;;1999.90;999.90;;;;;;;;;;6212689;23;20000;-69
2023/11/12 10:50:18;;;;;;;1999.90;999.90;;;;;;;;;;6212659;23;20013;-67
2023/11/12 10:52:45;;;;;;;1999.90;999.90;;;;;;;;;;6212200;23;20078;-72
2023/11/12 10:55:13;;;;;;;1999.90;999.90;;;;;;;;;;6212564;23;20008;-67
2023/11/12 10:57:42;;;;;;;1999.90;999.90;;;;;;;;;;6213982;23;20511;-63
2023/11/12 11:00:11;;;;;;;1999.90;999.90;;;;;;;;;;6212913;23;20476;-65
2023/11/12 11:02:38;;;;;;;1999.90;999.90;;;;;;;;;;6213828;23;20329;-68
2023/11/12 11:05:05;;;;;;;1999.90;999.90;;;;;;;;;;6212809;23;20341;-67
2023/11/12 11:07:31;;;;;;;1999.90;999.90;;;;;;;;;;6213381;23;20000;-65
2023/11/12 11:09:57;;;;;;;1999.90;999.90;;;;;;;;;;6213706;23;20066;-65
2023/11/12 11:12:24;;;;;;;1999.90;999.90;;;;;;;;;;6212942;23;20001;-64
2023/11/12 11:14:51;;;;;;;1999.90;999.90;;;;;;;;;;6213559;23;20005;-72
2023/11/12 11:17:36;;;;;;;1999.90;999.90;;;;;;;;;;6214522;23;20001;-72
2023/11/12 11:20:02;;;;;;;1999.90;999.90;;;;;;;;;;6213744;23;20056;-65
2023/11/12 11:22:31;;;;;;;1999.90;999.90;;;;;;;;;;6212800;23;20004;-63
2023/11/12 11:24:57;;;;;;;1999.90;999.90;;;;;;;;;;6213437;23;20008;-64
2023/11/12 11:27:25;;;;;;;1999.90;999.90;;;;;;;;;;6213873;23;20007;-64
2023/11/12 11:30:14;;;;;;;1999.90;999.90;;;;;;;;;;6213286;23;20170;-63
2023/11/12 11:32:54;;;;;;;1999.90;999.90;;;;;;;;;;6186329;23;20746;-60
2023/11/12 11:35:25;;;;;;;1999.90;999.90;;;;;;;;;;6213631;23;20158;-60
2023/11/12 11:38:12;;;;;;;1999.90;999.90;;;;;;;;;;6213130;23;20000;-62
2023/11/12 11:40:42;;;;;;;1999.90;999.90;;;;;;;;;;6213476;23;20035;-62
2023/11/12 11:43:23;;;;;;;1999.90;999.90;;;;;;;;;;6213070;23;20062;-65
2023/11/12 11:46:08;;;;;;;1999.90;999.90;;;;;;;;;;6213497;23;20028;-68
2023/11/12 11:48:36;;;;;;;1999.90;999.90;;;;;;;;;;6213684;23;20008;-61
2023/11/12 11:51:24;;;;;;;1999.90;999.90;;;;;;;;;;6215644;23;20387;-65
2023/11/12 11:53:50;;;;;;;1999.90;999.90;;;;;;;;;;6214096;23;20011;-64
2023/11/12 11:56:19;;;;;;;1999.90;999.90;;;;;;;;;;6213670;23;20000;-63
2023/11/12 11:58:51;;;;;;;1999.90;999.90;;;;;;;;;;6212857;23;20063;-67
2023/11/12 12:01:17;;;;;;;;;;;;;;;;;;6214074;23;20078;-66
2023/11/12 12:03:43;;;;;;;1999.90;999.90;;;;;;;;;;6213571;23;19904;-66
2023/11/12 12:06:19;;;;;;;1999.90;999.90;;;;;;;;;;6212888;23;20036;-63
2023/11/12 12:08:56;;;;;;;1999.90;999.90;;;;;;;;;;6213409;23;20004;-63
2023/11/12 12:11:23;;;;;;;1999.90;999.90;;;;;;;;;;6211843;23;20345;-61
2023/11/12 12:14:04;;;;;;;1999.90;999.90;;;;;;;;;;6212924;23;20031;-61
2023/11/12 12:16:32;;;;;;;1999.90;999.90;;;;;;;;;;6213220;23;20000;-62
2023/11/12 12:18:58;;;;;;;1999.90;999.90;;;;;;;;;;6213079;23;20336;-69
2023/11/12 12:21:25;;;;;;;1999.90;999.90;;;;;;;;;;6212987;23;20375;-72
2023/11/12 12:23:51;;;;;;;1999.90;999.90;;;;;;;;;;6213084;23;20031;-75
2023/11/12 12:26:21;;;;;;;1999.90;999.90;;;;;;;;;;6213298;23;20009;-70
2023/11/12 12:28:47;;;;;;;1999.90;999.90;;;;;;;;;;6212894;23;20050;-66
2023/11/12 12:31:13;;;;;;;1999.90;999.90;;;;;;;;;;6213418;23;20037;-66
2023/11/12 12:33:39;;;;;;;1999.90;999.90;;;;;;;;;;6213327;23;20043;-71
2023/11/12 12:36:13;;;;;;;1999.90;999.90;;;;;;;;;;6213047;23;20031;-62
2023/11/12 12:38:58;;;;;;;1999.90;999.90;;;;;;;;;;6213205;23;20055;-64
2023/11/12 12:41:25;;;;;;;1999.90;999.90;;;;;;;;;;6212857;23;20000;-64
2023/11/12 12:43:52;;;;;;;1999.90;999.90;;;;;;;;;;6212484;23;20004;-66
2023/11/12 12:46:20;;;;;;;1999.90;999.90;;;;;;;;;;6212819;23;20039;-64
2023/11/12 12:48:52;;;;;;;1999.90;999.90;;;;;;;;;;6212977;23;20079;-65
2023/11/12 12:51:18;;;;;;;;;;;;;;;;;;6213704;23;20437;-63
2023/11/12 12:53:45;;;;;;;1999.90;999.90;;;;;;;;;;6213291;23;19900;-72
2023/11/12 12:56:13;;;;;;;1999.90;999.90;;;;;;;;;;6212691;23;20008;-65
2023/11/12 12:58:40;;;;;;;1999.90;999.90;;;;;;;;;;6212178;23;20341;-65
2023/11/12 13:01:10;;;;;;;1999.90;999.90;;;;;;;;;;6212564;23;20005;-67
2023/11/12 13:03:39;;;;;;;1999.90;999.90;;;;;;;;;;6212908;23;20306;-63
2023/11/12 13:06:10;;;;;;;1999.90;999.90;;;;;;;;;;6212530;23;20000;-63
2023/11/12 13:08:36;;;;;;;1999.90;999.90;;;;;;;;;;6212741;23;20005;-67
2023/11/12 13:11:03;;;;;;;1999.90;999.90;;;;;;;;;;6212334;23;20016;-64
2023/11/12 13:13:30;;;;;;;1999.90;999.90;;;;;;;;;;6212309;23;20004;-64
2023/11/12 13:15:59;;;;;;;1999.90;999.90;;;;;;;;;;6216101;23;20012;-71
2023/11/12 13:18:25;;;;;;;1999.90;999.90;;;;;;;;;;6212435;23;20092;-63
2023/11/12 13:20:51;;;;;;;1999.90;999.90;;;;;;;;;;6212755;23;20000;-68
2023/11/12 13:23:19;;;;;;;1999.90;999.90;;;;;;;;;;6217368;23;20023;-62
2023/11/12 13:25:49;;;;;;;1999.90;999.90;;;;;;;;;;6212625;23;20005;-67
2023/11/12 13:28:20;;;;;;;1999.90;999.90;;;;;;;;;;6219092;23;20015;-63
2023/11/12 13:30:47;;;;;;;1999.90;999.90;;;;;;;;;;6212002;23;20017;-66
2023/11/12 13:33:14;;;;;;;1999.90;999.90;;;;;;;;;;6212713;23;20087;-69
2023/11/12 13:35:40;;;;;;;1999.90;999.90;;;;;;;;;;6212768;23;20028;-65
2023/11/12 13:38:09;;;;;;;1999.90;999.90;;;;;;;;;;6185021;23;20008;-69
2023/11/12 13:40:37;;;;;;;1999.90;999.90;;;;;;;;;;6212121;23;20024;-64
2023/11/12 13:43:05;;;;;;;1999.90;999.90;;;;;;;;;;6211726;23;20032;-64
2023/11/12 13:45:32;;;;;;;1999.90;999.90;;;;;;;;;;6212407;23;20007;-65
2023/11/12 13:47:58;;;;;;;1999.90;999.90;;;;;;;;;;6212123;23;20417;-64
2023/11/12 13:50:28;;;;;;;1999.90;999.90;;;;;;;;;;6212462;23;20063;-64
2023/11/12 13:53:08;;;;;;;1999.90;999.90;;;;;;;;;;6213139;23;20001;-66
2023/11/12 13:55:37;;;;;;;1999.90;999.90;;;;;;;;;;6211464;23;20004;-66
2023/11/12 13:58:05;;;;;;;1999.90;999.90;;;;;;;;;;6211595;23;20360;-65
2023/11/12 14:00:32;;;;;;;1999.90;999.90;;;;;;;;;;6184546;23;20449;-65
2023/11/12 14:02:58;;;;;;;1999.90;999.90;;;;;;;;;;6212534;23;20019;-64
2023/11/12 14:05:26;;;;;;;1999.90;999.90;;;;;;;;;;6212948;23;20001;-66
2023/11/12 14:07:55;;;;;;;1999.90;999.90;;;;;;;;;;6212779;23;20004;-67
2023/11/12 14:10:21;;;;;;;1999.90;999.90;;;;;;;;;;6211433;23;20059;-66
2023/11/12 14:12:50;;;;;;;1999.90;999.90;;;;;;;;;;6212256;23;20083;-66
2023/11/12 14:15:17;;;;;;;1999.90;999.90;;;;;;;;;;6211586;23;20043;-68
2023/11/12 14:17:44;;;;;;;1999.90;999.90;;;;;;;;;;6212400;23;20020;-63
2023/11/12 14:20:10;;;;;;;1999.90;999.90;;;;;;;;;;6212328;23;20005;-67
2023/11/12 14:22:37;;;;;;;1999.90;999.90;;;;;;;;;;6211669;23;20054;-67
2023/11/12 14:25:10;;;;;;;1999.90;999.90;;;;;;;;;;6212154;23;20147;-66
2023/11/12 14:27:40;;;;;;;1999.90;999.90;;;;;;;;;;6212568;23;20008;-63
2023/11/12 14:30:13;;;;;;;1999.90;999.90;;;;;;;;;;6212787;23;20028;-64
2023/11/12 14:32:38;;;;;;;;;;;;;;;;;;6214618;23;20500;-64
2023/11/12 14:35:05;;;;;;;1999.90;999.90;;;;;;;;;;6214382;23;19928;-66
2023/11/12 14:37:31;;;;;;;1999.90;999.90;;;;;;;;;;6214057;23;20001;-65
2023/11/12 14:40:05;;;;;;;1999.90;999.90;;;;;;;;;;6213981;23;20060;-64
2023/11/12 14:42:31;;;;;;;1999.90;999.90;;;;;;;;;;6214055;23;20008;-65
2023/11/12 14:44:58;;;;;;;1999.90;999.90;;;;;;;;;;6213713;23;20103;-63
2023/11/12 14:47:24;;;;;;;1999.90;999.90;;;;;;;;;;6213822;23;20092;-67
2023/11/12 14:49:50;;;;;;;1999.90;999.90;;;;;;;;;;6213636;23;20012;-66
2023/11/12 14:52:16;;;;;;;1999.90;999.90;;;;;;;;;;6213560;23;20001;-64
2023/11/12 14:54:43;;;;;;;1999.90;999.90;;;;;;;;;;6213770;23;20008;-68
2023/11/12 14:57:10;;;;;;;1999.90;999.90;;;;;;;;;;6213763;23;20055;-68
2023/11/12 14:59:39;;;;;;;1999.90;999.90;;;;;;;;;;6213355;23;20016;-64
2023/11/12 15:02:05;;;;;;;1999.90;999.90;;;;;;;;;;6202372;23;20035;-66
2023/11/12 15:04:32;;;;;;;1999.90;999.90;;;;;;;;;;6214043;23;19997;-65
2023/11/12 15:06:58;;;;;;;1999.90;999.90;;;;;;;;;;6214000;23;20009;-64
2023/11/12 15:09:24;;;;;;;1999.90;999.90;;;;;;;;;;6213663;23;20004;-63
2023/11/12 15:11:50;;;;;;;1999.90;999.90;;;;;;;;;;6213022;23;20062;-63
2023/11/12 15:14:17;;;;;;;1999.90;999.90;;;;;;;;;;6213135;23;20016;-61
2023/11/12 15:16:43;;;;;;;1999.90;999.90;;;;;;;;;;6213830;23;20000;-63
2023/11/12 15:19:10;;;;;;;1999.90;999.90;;;;;;;;;;6213795;23;20008;-66
2023/11/12 15:21:42;;;;;;;1999.90;999.90;;;;;;;;;;6213882;23;20005;-66
2023/11/12 15:24:08;;;;;;;;;;;;;;;;;;6214596;23;20096;-60
2023/11/12 15:26:34;;;;;;;1999.90;999.90;;;;;;;;;;6213828;23;19935;-65
2023/11/12 15:29:01;;;;;;;1999.90;999.90;;;;;;;;;;6213190;23;20016;-69
2023/11/12 15:31:27;;;;;;;1999.90;999.90;;;;;;;;;;6213543;23;20009;-61
2023/11/12 15:33:53;;;;;;;1999.90;999.90;;;;;;;;;;6213697;23;20375;-66
2023/11/12 15:36:19;;;;;;;1999.90;999.90;;;;;;;;;;6213918;23;20013;-68
2023/11/12 15:38:45;;;;;;;1999.90;999.90;;;;;;;;;;6214072;23;20019;-63
2023/11/12 15:41:11;;;;;;;1999.90;999.90;;;;;;;;;;6212930;23;19997;-63
2023/11/12 15:43:37;;;;;;;1999.90;999.90;;;;;;;;;;6213568;23;20341;-65
2023/11/12 15:46:04;;;;;;;1999.90;999.90;;;;;;;;;;6213084;23;20337;-64
2023/11/12 15:48:30;;;;;;;1999.90;999.90;;;;;;;;;;6212928;23;20092;-69
2023/11/12 15:50:56;;;;;;;1999.90;999.90;;;;;;;;;;6213421;23;20425;-65
2023/11/12 15:53:27;;;;;;;1999.90;999.90;;;;;;;;;;6213470;23;20001;-66
2023/11/12 15:55:53;;;;;;;1999.90;999.90;;;;;;;;;;6213310;23;20004;-61
2023/11/12 15:58:20;;;;;;;1999.90;999.90;;;;;;;;;;6213266;23;20005;-74
2023/11/12 16:00:47;;;;;;;1999.90;999.90;;;;;;;;;;6213302;23;20013;-70
2023/11/12 19:39:01;;;;;;;1999.90;999.90;;;;;;;;;;6267405;22;20434;-65
2023/11/12 19:41:28;;;;;;;1999.90;999.90;;;;;;;;;;6305881;22;20074;-72
2023/11/12 19:43:55;;;;;;;1999.90;999.90;;;;;;;;;;6305833;22;20141;-70
2023/11/12 19:46:22;;;;;;;1999.90;999.90;;;;;;;;;;6306791;22;20003;-67
2023/11/12 19:48:48;;;;;;;1999.90;999.90;;;;;;;;;;6305700;22;20044;-68
2023/11/12 19:51:14;;;;;;;1999.90;999.90;;;;;;;;;;6305932;22;20019;-75
2023/11/12 19:53:40;;;;;;;1999.90;999.90;;;;;;;;;;6305235;22;20074;-66
2023/11/12 19:56:07;;;;;;;1999.90;999.90;;;;;;;;;;6305359;22;20010;-79
2023/11/12 19:58:33;;;;;;;1999.90;999.90;;;;;;;;;;6305248;22;20452;-80
2023/11/12 20:00:59;;;;;;;1999.90;999.90;;;;;;;;;;6278076;22;20057;-68
2023/11/12 20:03:25;;;;;;;1999.90;999.90;;;;;;;;;;6305704;22;19999;-64
2023/11/12 20:05:51;;;;;;;1999.90;999.90;;;;;;;;;;6305267;22;20077;-72
2023/11/12 20:08:18;;;;;;;1999.90;999.90;;;;;;;;;;6304672;22;20633;-69
2023/11/12 20:10:46;;;;;;;1999.90;999.90;;;;;;;;;;6305163;22;20023;-65
2023/11/12 20:13:13;;;;;;;1999.90;999.90;;;;;;;;;;6304507;22;20049;-66
2023/11/12 20:15:39;;;;;;;1999.90;999.90;;;;;;;;;;6304935;22;20364;-69
2023/11/12 20:18:09;;;;;;;1999.90;999.90;;;;;;;;;;6305490;22;20343;-71
2023/11/12 20:20:38;;;;;;;1999.90;999.90;;;;;;;;;;6276767;22;20004;-66
2023/11/12 20:23:06;;;;;;;1999.90;999.90;;;;;;;;;;6304762;22;20007;-67
2023/11/12 20:25:35;;;;;;;1999.90;999.90;;;;;;;;;;6304961;22;19999;-68
2023/11/12 20:28:01;;;;;;;1999.90;999.90;;;;;;;;;;6304313;22;20003;-65
2023/11/12 20:30:29;;;;;;;1999.90;999.90;;;;;;;;;;6304726;22;20111;-69
2023/11/12 20:32:55;;;;;;;1999.90;999.90;;;;;;;;;;6305452;22;20003;-69
2023/11/12 20:35:21;;;;;;;1999.90;999.90;;;;;;;;;;6305164;22;20003;-64
2023/11/12 20:37:47;;;;;;;1999.90;999.90;;;;;;;;;;6301530;22;20007;-68
2023/11/12 20:40:13;;;;;;;1999.90;999.90;;;;;;;;;;6304228;22;20019;-70
2023/11/12 20:42:42;;;;;;;1999.90;999.90;;;;;;;;;;6305108;22;20076;-64
2023/11/12 20:45:12;;;;;;;1999.90;999.90;;;;;;;;;;6304446;22;20003;-65
2023/11/12 20:47:38;;;;;;;1999.90;999.90;;;;;;;;;;6304730;22;20013;-72
2023/11/12 20:50:04;;;;;;;1999.90;999.90;;;;;;;;;;6304266;22;20082;-73
2023/11/12 20:52:32;;;;;;;1999.90;999.90;;;;;;;;;;6303878;22;20007;-73
2023/11/12 20:55:00;;;;;;;1999.90;999.90;;;;;;;;;;6304072;22;20007;-75
2023/11/12 20:57:28;;;;;;;1999.90;999.90;;;;;;;;;;6304064;22;20007;-66
2023/11/12 20:59:58;;;;;;;1999.90;999.90;;;;;;;;;;6303910;22;20030;-75
2023/11/12 21:02:26;;;;;;;1999.90;999.90;;;;;;;;;;6303666;22;20359;-72
2023/11/12 21:04:52;;;;;;;1999.90;999.90;;;;;;;;;;6303787;22;19995;-70
2023/11/12 21:07:23;;;;;;;1999.90;999.90;;;;;;;;;;6303638;22;20327;-73
2023/11/12 21:09:50;;;;;;;1999.90;999.90;;;;;;;;;;6302650;22;20015;-73
2023/11/12 21:12:16;;;;;;;1999.90;999.90;;;;;;;;;;6303778;22;20007;-72
2023/11/12 21:14:42;;;;;;;1999.90;999.90;;;;;;;;;;6303835;22;20060;-79
2023/11/12 21:17:08;;;;;;;1999.90;999.90;;;;;;;;;;6303347;22;20061;-72
2023/11/12 21:19:34;;;;;;;1999.90;999.90;;;;;;;;;;6303946;22;20062;-77
2023/11/12 21:22:00;;;;;;;1999.90;999.90;;;;;;;;;;6276352;22;20014;-76
2023/11/12 21:24:27;;;;;;;1999.90;999.90;;;;;;;;;;6303219;22;19999;-71
2023/11/12 21:26:53;;;;;;;1999.90;999.90;;;;;;;;;;6274809;22;20007;-73
2023/11/12 21:29:19;;;;;;;1999.90;999.90;;;;;;;;;;6276198;22;20411;-75
2023/11/12 21:31:46;;;;;;;1999.90;999.90;;;;;;;;;;6303194;22;20337;-74
2023/11/12 21:34:12;;;;;;;1999.90;999.90;;;;;;;;;;6303769;22;19999;-75
2023/11/12 21:36:38;;;;;;;1999.90;999.90;;;;;;;;;;6302193;22;20078;-74
2023/11/12 21:39:05;;;;;;;1999.90;999.90;;;;;;;;;;6303150;22;20089;-73
2023/11/12 21:41:31;;;;;;;1999.90;999.90;;;;;;;;;;6303367;22;20011;-73
2023/11/12 21:43:57;;;;;;;1999.90;999.90;;;;;;;;;;6303552;22;20007;-71
2023/11/12 21:46:23;;;;;;;1999.90;999.90;;;;;;;;;;6275611;22;20373;-75
2023/11/12 21:48:53;;;;;;;1999.90;999.90;;;;;;;;;;6303583;22;20035;-75
2023/11/12 21:51:22;;;;;;;1999.90;999.90;;;;;;;;;;6303635;22;20061;-71
2023/11/12 21:53:48;;;;;;;1999.90;999.90;;;;;;;;;;6303597;22;20010;-73
2023/11/12 21:56:14;;;;;;;1999.90;999.90;;;;;;;;;;6303840;22;20011;-81
2023/11/12 21:58:40;;;;;;;1999.90;999.90;;;;;;;;;;6304525;22;20006;-83
2023/11/12 22:01:10;;;;;;;1999.90;999.90;;;;;;;;;;6304244;22;20438;-83
2023/11/12 22:03:36;;;;;;;1999.90;999.90;;;;;;;;;;6276362;22;20446;-77
2023/11/12 22:06:03;;;;;;;1999.90;999.90;;;;;;;;;;6304383;22;20003;-75
2023/11/12 22:08:29;;;;;;;1999.90;999.90;;;;;;;;;;6304737;22;20025;-75
2023/11/12 22:10:55;;;;;;;1999.90;999.90;;;;;;;;;;6303533;22;20437;-74
2023/11/12 22:13:21;;;;;;;1999.90;999.90;;;;;;;;;;6276784;22;20378;-73
2023/11/12 22:15:48;;;;;;;1999.90;999.90;;;;;;;;;;6304053;22;20101;-73
2023/11/12 22:18:14;;;;;;;1999.90;999.90;;;;;;;;;;6304362;22;19999;-74
2023/11/12 22:20:40;;;;;;;1999.90;999.90;;;;;;;;;;6304527;22;20023;-71
2023/11/12 22:23:06;;;;;;;1999.90;999.90;;;;;;;;;;6304384;22;20010;-68
2023/11/12 22:25:32;;;;;;;1999.90;999.90;;;;;;;;;;6304039;22;20019;-74
2023/11/12 22:27:58;;;;;;;1999.90;999.90;;;;;;;;;;6277164;22;20018;-84
2023/11/12 22:30:24;;;;;;;1999.90;999.90;;;;;;;;;;6304330;22;20022;-73
2023/11/12 22:32:53;;;;;;;1999.90;999.90;;;;;;;;;;6304246;22;19999;-75
2023/11/12 22:35:19;;;;;;;1999.90;999.90;;;;;;;;;;6304185;22;20425;-72
2023/11/12 22:37:45;;;;;;;1999.90;999.90;;;;;;;;;;6304192;22;20007;-74
2023/11/12 22:40:14;;;;;;;1999.90;999.90;;;;;;;;;;6303591;22;20443;-72
2023/11/12 22:42:40;;;;;;;1999.90;999.90;;;;;;;;;;6304127;22;20566;-75
2023/11/12 22:45:12;;;;;;;1999.90;999.90;;;;;;;;;;6304031;22;20003;-70
2023/11/12 22:47:38;;;;;;;1999.90;999.90;;;;;;;;;;6304171;22;19999;-71
2023/11/12 22:50:04;;;;;;;1999.90;999.90;;;;;;;;;;6304101;22;20012;-68
2023/11/12 22:52:30;;;;;;;1999.90;999.90;;;;;;;;;;6305839;22;20096;-73
2023/11/12 22:54:57;;;;;;;1999.90;999.90;;;;;;;;;;6305894;22;20025;-74
2023/11/12 22:57:23;;;;;;;1999.90;999.90;;;;;;;;;;6306239;22;20034;-75
2023/11/12 22:59:49;;;;;;;1999.90;999.90;;;;;;;;;;6306240;22;19999;-71
2023/11/12 23:02:15;;;;;;;1999.90;999.90;;;;;;;;;;6278608;22;20092;-67
2023/11/12 23:04:41;;;;;;;1999.90;999.90;;;;;;;;;;6278284;22;20090;-73
2023/11/12 23:07:09;;;;;;;1999.90;999.90;;;;;;;;;;6306046;22;20582;-66
2023/11/12 23:09:35;;;;;;;1999.90;999.90;;;;;;;;;;6303392;22;20427;-65
